sensor_id;sensor_type;location;lat;lon;timestamp;pressure;altitude;pressure_sealevel;temperature;humidity
11712;BME280;5912;51.034;6.984;2024-02-21T00:00:54;56586.69;;;-142.13;60.11
11712;BME280;5912;51.034;6.984;2024-02-21T00:03:20;56570.69;;;-142.13;59.37
11712;BME280;5912;51.034;6.984;2024-02-21T00:05:45;56620.75;;;-142.13;59.33
11712;BME280;5912;51.034;6.984;2024-02-21T00:08:11;56598.72;;;-142.13;59.29
11712;BME280;5912;51.034;6.984;2024-02-21T00:10:36;56582.69;;;-142.13;59.73
11712;BME280;5912;51.034;6.984;2024-02-21T00:13:02;56564.66;;;-142.13;59.92
11712;BME280;5912;51.034;6.984;2024-02-21T00:15:28;56586.69;;;-142.13;59.83
11712;BME280;5912;51.034;6.984;2024-02-21T00:17:53;56596.72;;;-142.13;60.05
11712;BME280;5912;51.034;6.984;2024-02-21T00:20:19;56584.69;;;-142.13;60.32
11712;BME280;5912;51.034;6.984;2024-02-21T00:22:45;56596.72;;;-142.13;60.25
11712;BME280;5912;51.034;6.984;2024-02-21T00:25:11;56592.72;;;-142.13;60.77
11712;BME280;5912;51.034;6.984;2024-02-21T00:27:37;56560.66;;;-142.13;60.60
11712;BME280;5912;51.034;6.984;2024-02-21T00:30:03;56588.69;;;-142.13;60.63
11712;BME280;5912;51.034;6.984;2024-02-21T00:32:28;56572.69;;;-142.13;60.36
11712;BME280;5912;51.034;6.984;2024-02-21T00:34:54;56590.72;;;-142.13;60.93
11712;BME280;5912;51.034;6.984;2024-02-21T00:37:19;56538.63;;;-142.13;60.77
11712;BME280;5912;51.034;6.984;2024-02-21T00:39:45;56566.66;;;-142.13;61.14
11712;BME280;5912;51.034;6.984;2024-02-21T00:42:10;56556.66;;;-142.13;61.13
11712;BME280;5912;51.034;6.984;2024-02-21T00:44:36;56564.66;;;-142.13;61.02
11712;BME280;5912;51.034;6.984;2024-02-21T00:47:02;56604.72;;;-142.13;61.64
11712;BME280;5912;51.034;6.984;2024-02-21T00:49:27;56584.69;;;-142.13;61.09
11712;BME280;5912;51.034;6.984;2024-02-21T00:51:53;56552.66;;;-142.13;61.46
11712;BME280;5912;51.034;6.984;2024-02-21T00:54:18;56777.03;;;-142.13;61.36
11712;BME280;5912;51.034;6.984;2024-02-21T00:56:44;56568.66;;;-142.13;61.47
11712;BME280;5912;51.034;6.984;2024-02-21T00:59:09;56564.66;;;-142.13;61.90
11712;BME280;5912;51.034;6.984;2024-02-21T01:01:35;56604.72;;;-142.13;61.31
11712;BME280;5912;51.034;6.984;2024-02-21T01:04:00;56582.69;;;-142.13;61.75
11712;BME280;5912;51.034;6.984;2024-02-21T01:06:26;56580.69;;;-142.13;61.59
11712;BME280;5912;51.034;6.984;2024-02-21T01:08:52;56576.69;;;-142.13;61.81
11712;BME280;5912;51.034;6.984;2024-02-21T01:11:17;56578.69;;;-142.13;61.79
11712;BME280;5912;51.034;6.984;2024-02-21T01:13:44;56584.69;;;-142.13;61.55
11712;BME280;5912;51.034;6.984;2024-02-21T01:16:10;56580.69;;;-142.13;61.86
11712;BME280;5912;51.034;6.984;2024-02-21T01:18:39;56590.72;;;-142.13;61.84
11712;BME280;5912;51.034;6.984;2024-02-21T01:21:05;56582.69;;;-142.13;61.71
11712;BME280;5912;51.034;6.984;2024-02-21T01:23:35;56592.72;;;-142.13;61.88
11712;BME280;5912;51.034;6.984;2024-02-21T01:26:02;56584.69;;;-142.13;61.81
11712;BME280;5912;51.034;6.984;2024-02-21T01:28:28;56572.69;;;-142.13;61.79
11712;BME280;5912;51.034;6.984;2024-02-21T01:30:54;56616.75;;;-142.13;62.10
11712;BME280;5912;51.034;6.984;2024-02-21T01:33:21;56578.69;;;-142.13;62.01
11712;BME280;5912;51.034;6.984;2024-02-21T01:35:46;56600.72;;;-142.13;62.09
11712;BME280;5912;51.034;6.984;2024-02-21T01:38:15;56582.69;;;-142.13;62.23
11712;BME280;5912;51.034;6.984;2024-02-21T01:40:40;56556.66;;;-142.13;61.83
11712;BME280;5912;51.034;6.984;2024-02-21T01:43:16;56598.72;;;-142.13;62.06
11712;BME280;5912;51.034;6.984;2024-02-21T01:45:42;56584.69;;;-142.13;61.86
11712;BME280;5912;51.034;6.984;2024-02-21T01:48:08;56604.72;;;-142.13;61.86
11712;BME280;5912;51.034;6.984;2024-02-21T01:50:33;56598.72;;;-142.13;62.02
11712;BME280;5912;51.034;6.984;2024-02-21T01:52:59;56596.72;;;-142.13;62.11
11712;BME280;5912;51.034;6.984;2024-02-21T01:55:25;56596.72;;;-142.13;61.93
11712;BME280;5912;51.034;6.984;2024-02-21T01:57:51;56560.66;;;-142.13;62.20
11712;BME280;5912;51.034;6.984;2024-02-21T02:00:17;56590.72;;;-142.13;61.88
11712;BME280;5912;51.034;6.984;2024-02-21T02:02:43;56596.72;;;-142.13;62.03
11712;BME280;5912;51.034;6.984;2024-02-21T02:05:10;56596.72;;;-142.13;61.94
11712;BME280;5912;51.034;6.984;2024-02-21T02:07:36;56576.69;;;-142.13;62.11
11712;BME280;5912;51.034;6.984;2024-02-21T02:10:02;56590.72;;;-142.13;62.00
11712;BME280;5912;51.034;6.984;2024-02-21T02:12:27;56546.63;;;-142.13;62.04
11712;BME280;5912;51.034;6.984;2024-02-21T02:15:03;56620.75;;;-142.13;61.68
11712;BME280;5912;51.034;6.984;2024-02-21T02:17:31;56592.72;;;-142.13;62.04
11712;BME280;5912;51.034;6.984;2024-02-21T02:19:57;56580.69;;;-142.13;62.04
11712;BME280;5912;51.034;6.984;2024-02-21T02:22:28;56550.63;;;-142.13;61.70
11712;BME280;5912;51.034;6.984;2024-02-21T02:24:54;56728.94;;;-142.13;61.81
11712;BME280;5912;51.034;6.984;2024-02-21T02:27:20;56562.66;;;-142.13;61.71
11712;BME280;5912;51.034;6.984;2024-02-21T02:29:48;56592.72;;;-142.13;61.38
11712;BME280;5912;51.034;6.984;2024-02-21T02:32:13;56584.69;;;-142.13;61.76
11712;BME280;5912;51.034;6.984;2024-02-21T02:34:39;56598.72;;;-142.13;61.56
11712;BME280;5912;51.034;6.984;2024-02-21T02:37:04;56572.69;;;-142.13;61.48
11712;BME280;5912;51.034;6.984;2024-02-21T02:39:30;56614.75;;;-142.13;61.49
11712;BME280;5912;51.034;6.984;2024-02-21T02:41:56;56580.69;;;-142.13;61.76
11712;BME280;5912;51.034;6.984;2024-02-21T02:44:21;56540.63;;;-142.13;61.38
11712;BME280;5912;51.034;6.984;2024-02-21T02:46:47;56612.75;;;-142.13;61.51
11712;BME280;5912;51.034;6.984;2024-02-21T02:49:12;56580.69;;;-142.13;61.76
11712;BME280;5912;51.034;6.984;2024-02-21T02:51:41;56580.69;;;-142.13;61.97
11712;BME280;5912;51.034;6.984;2024-02-21T02:54:08;56604.72;;;-142.13;61.98
11712;BME280;5912;51.034;6.984;2024-02-21T02:56:33;56582.69;;;-142.13;62.02
11712;BME280;5912;51.034;6.984;2024-02-21T02:58:59;56580.69;;;-142.13;61.90
11712;BME280;5912;51.034;6.984;2024-02-21T03:01:24;56560.66;;;-142.13;61.93
11712;BME280;5912;51.034;6.984;2024-02-21T03:03:50;56586.69;;;-142.13;61.65
11712;BME280;5912;51.034;6.984;2024-02-21T03:06:15;56560.66;;;-142.13;61.76
11712;BME280;5912;51.034;6.984;2024-02-21T03:08:41;56564.66;;;-142.13;61.63
11712;BME280;5912;51.034;6.984;2024-02-21T03:11:08;56572.69;;;-142.13;61.80
11712;BME280;5912;51.034;6.984;2024-02-21T03:13:34;56566.66;;;-142.13;61.55
11712;BME280;5912;51.034;6.984;2024-02-21T03:15:59;56576.69;;;-142.13;61.36
11712;BME280;5912;51.034;6.984;2024-02-21T03:18:25;56558.66;;;-142.13;61.80
11712;BME280;5912;51.034;6.984;2024-02-21T03:20:50;56604.72;;;-142.13;61.50
11712;BME280;5912;51.034;6.984;2024-02-21T03:23:16;56550.63;;;-142.13;61.12
11712;BME280;5912;51.034;6.984;2024-02-21T03:25:41;56592.72;;;-142.13;61.13
11712;BME280;5912;51.034;6.984;2024-02-21T03:28:07;56588.69;;;-142.13;60.87
11712;BME280;5912;51.034;6.984;2024-02-21T03:30:32;56596.72;;;-142.13;60.95
11712;BME280;5912;51.034;6.984;2024-02-21T03:32:59;56600.72;;;-142.13;60.28
11712;BME280;5912;51.034;6.984;2024-02-21T03:35:24;56572.69;;;-142.13;60.80
11712;BME280;5912;51.034;6.984;2024-02-21T03:37:52;56588.69;;;-142.13;60.72
11712;BME280;5912;51.034;6.984;2024-02-21T03:40:17;56592.72;;;-142.13;60.49
11712;BME280;5912;51.034;6.984;2024-02-21T03:42:43;56580.69;;;-142.13;60.78
11712;BME280;5912;51.034;6.984;2024-02-21T03:45:09;56552.66;;;-142.13;60.42
11712;BME280;5912;51.034;6.984;2024-02-21T03:47:35;56552.66;;;-142.13;60.58
11712;BME280;5912;51.034;6.984;2024-02-21T03:50:00;56564.66;;;-142.13;60.26
11712;BME280;5912;51.034;6.984;2024-02-21T03:52:26;56548.63;;;-142.13;60.65
11712;BME280;5912;51.034;6.984;2024-02-21T03:54:51;56586.69;;;-142.13;60.44
11712;BME280;5912;51.034;6.984;2024-02-21T03:57:16;56540.63;;;-142.13;60.37
11712;BME280;5912;51.034;6.984;2024-02-21T03:59:42;56584.69;;;-142.13;60.17
11712;BME280;5912;51.034;6.984;2024-02-21T04:02:08;56588.69;;;-142.13;60.82
11712;BME280;5912;51.034;6.984;2024-02-21T04:04:37;56582.69;;;-142.13;60.78
11712;BME280;5912;51.034;6.984;2024-02-21T04:07:03;56572.69;;;-142.13;60.59
11712;BME280;5912;51.034;6.984;2024-02-21T04:09:32;56582.69;;;-142.13;60.53
11712;BME280;5912;51.034;6.984;2024-02-21T04:11:59;56584.69;;;-142.13;60.73
11712;BME280;5912;51.034;6.984;2024-02-21T04:14:24;56592.72;;;-142.13;60.62
11712;BME280;5912;51.034;6.984;2024-02-21T04:16:50;56544.63;;;-142.13;60.35
11712;BME280;5912;51.034;6.984;2024-02-21T04:19:15;56548.63;;;-142.13;60.34
11712;BME280;5912;51.034;6.984;2024-02-21T04:21:41;56558.66;;;-142.13;60.44
11712;BME280;5912;51.034;6.984;2024-02-21T04:24:06;56582.69;;;-142.13;60.36
11712;BME280;5912;51.034;6.984;2024-02-21T04:26:32;56604.72;;;-142.13;60.30
11712;BME280;5912;51.034;6.984;2024-02-21T04:28:57;56632.78;;;-142.13;60.67
11712;BME280;5912;51.034;6.984;2024-02-21T04:31:23;56584.69;;;-142.13;60.14
11712;BME280;5912;51.034;6.984;2024-02-21T04:33:53;56566.66;;;-142.13;60.25
11712;BME280;5912;51.034;6.984;2024-02-21T04:36:19;56566.66;;;-142.13;60.49
11712;BME280;5912;51.034;6.984;2024-02-21T04:38:45;56612.75;;;-142.13;60.71
11712;BME280;5912;51.034;6.984;2024-02-21T04:41:10;56572.69;;;-142.13;60.72
11712;BME280;5912;51.034;6.984;2024-02-21T04:43:36;56584.69;;;-142.13;60.32
11712;BME280;5912;51.034;6.984;2024-02-21T04:46:01;56592.72;;;-142.13;60.63
11712;BME280;5912;51.034;6.984;2024-02-21T04:48:27;56592.72;;;-142.13;60.70
11712;BME280;5912;51.034;6.984;2024-02-21T04:50:52;56592.72;;;-142.13;60.34
11712;BME280;5912;51.034;6.984;2024-02-21T04:53:18;56566.66;;;-142.13;60.36
11712;BME280;5912;51.034;6.984;2024-02-21T04:55:43;56578.69;;;-142.13;60.77
11712;BME280;5912;51.034;6.984;2024-02-21T04:58:09;56596.72;;;-142.13;60.66
11712;BME280;5912;51.034;6.984;2024-02-21T05:00:35;56588.69;;;-142.13;60.65
11712;BME280;5912;51.034;6.984;2024-02-21T05:03:00;56580.69;;;-142.13;60.81
11712;BME280;5912;51.034;6.984;2024-02-21T05:05:25;56598.72;;;-142.13;60.67
11712;BME280;5912;51.034;6.984;2024-02-21T05:07:51;56576.69;;;-142.13;60.73
11712;BME280;5912;51.034;6.984;2024-02-21T05:10:16;56600.72;;;-142.13;60.78
11712;BME280;5912;51.034;6.984;2024-02-21T05:12:43;56622.75;;;-142.13;60.84
11712;BME280;5912;51.034;6.984;2024-02-21T05:15:31;56590.72;;;-142.13;60.51
11712;BME280;5912;51.034;6.984;2024-02-21T05:17:56;56564.66;;;-142.13;60.79
11712;BME280;5912;51.034;6.984;2024-02-21T05:20:22;56612.75;;;-142.13;60.67
11712;BME280;5912;51.034;6.984;2024-02-21T05:22:48;56576.69;;;-142.13;60.87
11712;BME280;5912;51.034;6.984;2024-02-21T05:25:13;56616.75;;;-142.13;60.84
11712;BME280;5912;51.034;6.984;2024-02-21T05:27:39;56618.75;;;-142.13;60.83
11712;BME280;5912;51.034;6.984;2024-02-21T05:30:05;56600.72;;;-142.13;61.22
11712;BME280;5912;51.034;6.984;2024-02-21T05:32:32;56584.69;;;-142.13;61.28
11712;BME280;5912;51.034;6.984;2024-02-21T05:34:57;56552.66;;;-142.13;61.13
11712;BME280;5912;51.034;6.984;2024-02-21T05:37:23;56596.72;;;-142.13;61.04
11712;BME280;5912;51.034;6.984;2024-02-21T05:39:49;56604.72;;;-142.13;61.28
11712;BME280;5912;51.034;6.984;2024-02-21T05:42:15;56580.69;;;-142.13;61.03
11712;BME280;5912;51.034;6.984;2024-02-21T05:44:40;56602.72;;;-142.13;60.98
11712;BME280;5912;51.034;6.984;2024-02-21T05:47:06;56596.72;;;-142.13;61.08
11712;BME280;5912;51.034;6.984;2024-02-21T05:49:36;56602.72;;;-142.13;60.87
11712;BME280;5912;51.034;6.984;2024-02-21T05:52:02;56600.72;;;-142.13;61.08
11712;BME280;5912;51.034;6.984;2024-02-21T05:54:28;56588.69;;;-142.13;61.19
11712;BME280;5912;51.034;6.984;2024-02-21T05:56:53;56608.75;;;-142.13;60.96
11712;BME280;5912;51.034;6.984;2024-02-21T05:59:19;56580.69;;;-142.13;60.62
11712;BME280;5912;51.034;6.984;2024-02-21T06:01:45;56588.69;;;-142.13;60.65
11712;BME280;5912;51.034;6.984;2024-02-21T06:04:10;56576.69;;;-142.13;60.32
11712;BME280;5912;51.034;6.984;2024-02-21T06:06:36;56604.72;;;-142.13;60.27
11712;BME280;5912;51.034;6.984;2024-02-21T06:09:02;56588.69;;;-142.13;59.97
11712;BME280;5912;51.034;6.984;2024-02-21T06:11:28;56598.72;;;-142.13;59.91
11712;BME280;5912;51.034;6.984;2024-02-21T06:13:54;56620.75;;;-142.13;59.31
11712;BME280;5912;51.034;6.984;2024-02-21T06:16:20;56548.63;;;-142.13;59.40
11712;BME280;5912;51.034;6.984;2024-02-21T06:18:46;56600.72;;;-142.13;58.59
11712;BME280;5912;51.034;6.984;2024-02-21T06:21:11;56636.78;;;-142.13;58.49
11712;BME280;5912;51.034;6.984;2024-02-21T06:23:49;56596.72;;;-142.13;58.21
11712;BME280;5912;51.034;6.984;2024-02-21T06:26:15;56580.69;;;-142.13;58.45
11712;BME280;5912;51.034;6.984;2024-02-21T06:28:40;56578.69;;;-142.13;57.86
11712;BME280;5912;51.034;6.984;2024-02-21T06:31:06;56580.69;;;-142.13;57.81
11712;BME280;5912;51.034;6.984;2024-02-21T06:33:32;56600.72;;;-142.13;57.86
11712;BME280;5912;51.034;6.984;2024-02-21T06:35:57;56600.72;;;-142.13;58.05
11712;BME280;5912;51.034;6.984;2024-02-21T06:38:23;56598.72;;;-142.13;57.68
11712;BME280;5912;51.034;6.984;2024-02-21T06:40:48;56584.69;;;-142.13;57.68
11712;BME280;5912;51.034;6.984;2024-02-21T06:46:39;56592.72;;;-142.13;57.83
11712;BME280;5912;51.034;6.984;2024-02-21T06:49:04;56564.66;;;-142.13;58.14
11712;BME280;5912;51.034;6.984;2024-02-21T06:51:30;56572.69;;;-142.13;58.42
11712;BME280;5912;51.034;6.984;2024-02-21T06:53:55;56586.69;;;-142.13;58.43
11712;BME280;5912;51.034;6.984;2024-02-21T06:56:24;56576.69;;;-142.13;59.09
11712;BME280;5912;51.034;6.984;2024-02-21T06:58:57;56592.72;;;-142.13;59.30
11712;BME280;5912;51.034;6.984;2024-02-21T07:01:23;56568.66;;;-142.13;59.53
11712;BME280;5912;51.034;6.984;2024-02-21T07:03:49;56598.72;;;-142.13;59.78
11712;BME280;5912;51.034;6.984;2024-02-21T07:06:15;56592.72;;;-142.13;60.40
11712;BME280;5912;51.034;6.984;2024-02-21T07:08:41;56596.72;;;-142.13;60.56
11712;BME280;5912;51.034;6.984;2024-02-21T07:11:06;56578.69;;;-142.13;60.51
11712;BME280;5912;51.034;6.984;2024-02-21T07:13:32;56598.72;;;-142.13;60.67
11712;BME280;5912;51.034;6.984;2024-02-21T07:15:58;56604.72;;;-142.13;60.69
11712;BME280;5912;51.034;6.984;2024-02-21T07:18:23;56576.69;;;-142.13;60.84
11712;BME280;5912;51.034;6.984;2024-02-21T07:20:51;56588.69;;;-142.13;61.71
11712;BME280;5912;51.034;6.984;2024-02-21T07:23:17;56574.69;;;-142.13;61.98
11712;BME280;5912;51.034;6.984;2024-02-21T07:25:43;56570.69;;;-142.13;62.54
11712;BME280;5912;51.034;6.984;2024-02-21T07:28:09;56588.69;;;-142.13;62.76
11712;BME280;5912;51.034;6.984;2024-02-21T07:30:34;56600.72;;;-142.13;63.10
11712;BME280;5912;51.034;6.984;2024-02-21T07:33:00;56614.75;;;-142.13;63.28
11712;BME280;5912;51.034;6.984;2024-02-21T07:35:41;56582.69;;;-142.13;63.13
11712;BME280;5912;51.034;6.984;2024-02-21T07:38:09;56576.69;;;-142.13;63.18
11712;BME280;5912;51.034;6.984;2024-02-21T07:40:38;56614.75;;;-142.13;63.42
11712;BME280;5912;51.034;6.984;2024-02-21T07:43:03;56646.81;;;-142.13;63.34
11712;BME280;5912;51.034;6.984;2024-02-21T07:45:29;56546.63;;;-142.13;62.11
11712;BME280;5912;51.034;6.984;2024-02-21T07:47:54;56618.75;;;-142.13;60.35
11712;BME280;5912;51.034;6.984;2024-02-21T07:50:20;56578.69;;;-142.13;60.14
11712;BME280;5912;51.034;6.984;2024-02-21T07:52:46;56580.69;;;-142.13;60.32
11712;BME280;5912;51.034;6.984;2024-02-21T07:55:11;56592.72;;;-142.13;60.29
11712;BME280;5912;51.034;6.984;2024-02-21T07:57:37;56596.72;;;-142.13;59.94
11712;BME280;5912;51.034;6.984;2024-02-21T08:00:03;56580.69;;;-142.13;59.89
11712;BME280;5912;51.034;6.984;2024-02-21T08:02:29;56580.69;;;-142.13;60.33
11712;BME280;5912;51.034;6.984;2024-02-21T08:04:55;56562.66;;;-142.13;60.25
11712;BME280;5912;51.034;6.984;2024-02-21T08:07:21;56586.69;;;-142.13;60.47
11712;BME280;5912;51.034;6.984;2024-02-21T08:09:46;56616.75;;;-142.13;60.08
11712;BME280;5912;51.034;6.984;2024-02-21T08:12:11;56612.75;;;-142.13;60.02
11712;BME280;5912;51.034;6.984;2024-02-21T08:14:37;56600.72;;;-142.13;59.61
11712;BME280;5912;51.034;6.984;2024-02-21T08:17:12;56614.75;;;-142.13;59.89
11712;BME280;5912;51.034;6.984;2024-02-21T08:19:37;56576.69;;;-142.13;59.68
11712;BME280;5912;51.034;6.984;2024-02-21T08:22:03;56594.72;;;-142.13;59.70
11712;BME280;5912;51.034;6.984;2024-02-21T08:24:28;56580.69;;;-142.13;59.92
11712;BME280;5912;51.034;6.984;2024-02-21T08:26:54;56592.72;;;-142.13;59.25
11712;BME280;5912;51.034;6.984;2024-02-21T08:29:19;56588.69;;;-142.13;59.89
11712;BME280;5912;51.034;6.984;2024-02-21T08:32:06;56588.69;;;-142.13;59.86
11712;BME280;5912;51.034;6.984;2024-02-21T08:34:32;56552.66;;;-142.13;59.34
11712;BME280;5912;51.034;6.984;2024-02-21T08:36:59;56590.72;;;-142.13;59.63
11712;BME280;5912;51.034;6.984;2024-02-21T08:39:25;56570.69;;;-142.13;59.00
11712;BME280;5912;51.034;6.984;2024-02-21T08:41:51;56600.72;;;-142.13;58.94
11712;BME280;5912;51.034;6.984;2024-02-21T08:44:16;56580.69;;;-142.13;58.62
11712;BME280;5912;51.034;6.984;2024-02-21T08:46:42;56590.72;;;-142.13;58.05
11712;BME280;5912;51.034;6.984;2024-02-21T08:49:09;56564.66;;;-142.13;58.07
11712;BME280;5912;51.034;6.984;2024-02-21T08:51:35;56584.69;;;-142.13;58.43
11712;BME280;5912;51.034;6.984;2024-02-21T08:54:00;56582.69;;;-142.13;58.22
11712;BME280;5912;51.034;6.984;2024-02-21T08:56:27;56556.66;;;-142.13;58.12
11712;BME280;5912;51.034;6.984;2024-02-21T08:58:52;56568.66;;;-142.13;57.83
11712;BME280;5912;51.034;6.984;2024-02-21T09:01:18;56556.66;;;-142.13;57.38
11712;BME280;5912;51.034;6.984;2024-02-21T09:03:43;56538.63;;;-142.13;57.45
11712;BME280;5912;51.034;6.984;2024-02-21T09:06:10;56574.69;;;-142.13;56.99
11712;BME280;5912;51.034;6.984;2024-02-21T09:08:35;56540.63;;;-142.13;56.91
11712;BME280;5912;51.034;6.984;2024-02-21T09:11:01;56570.69;;;-142.13;56.26
11712;BME280;5912;51.034;6.984;2024-02-21T09:13:27;56524.59;;;-142.13;55.93
11712;BME280;5912;51.034;6.984;2024-02-21T09:15:54;56530.59;;;-142.13;54.98
11712;BME280;5912;51.034;6.984;2024-02-21T09:18:19;56528.59;;;-142.13;53.50
11712;BME280;5912;51.034;6.984;2024-02-21T09:20:45;56564.66;;;-142.13;52.72
11712;BME280;5912;51.034;6.984;2024-02-21T09:23:11;56520.59;;;-142.13;52.74
11712;BME280;5912;51.034;6.984;2024-02-21T09:25:37;56516.59;;;-142.13;52.06
11712;BME280;5912;51.034;6.984;2024-02-21T09:28:03;56534.63;;;-142.13;51.24
11712;BME280;5912;51.034;6.984;2024-02-21T09:30:31;56528.59;;;-142.13;51.37
11712;BME280;5912;51.034;6.984;2024-02-21T09:32:57;56542.63;;;-142.13;51.20
11712;BME280;5912;51.034;6.984;2024-02-21T09:35:26;56560.66;;;-142.13;51.25
11712;BME280;5912;51.034;6.984;2024-02-21T09:37:53;56530.59;;;-142.13;50.90
11712;BME280;5912;51.034;6.984;2024-02-21T09:40:19;56524.59;;;-142.13;50.88
11712;BME280;5912;51.034;6.984;2024-02-21T09:42:46;56516.59;;;-142.13;50.77
11712;BME280;5912;51.034;6.984;2024-02-21T09:45:23;56532.63;;;-142.13;49.93
11712;BME280;5912;51.034;6.984;2024-02-21T09:48:14;56532.63;;;-142.13;48.37
11712;BME280;5912;51.034;6.984;2024-02-21T09:50:46;56524.59;;;-142.13;47.97
11712;BME280;5912;51.034;6.984;2024-02-21T09:53:13;56500.56;;;-142.13;48.40
11712;BME280;5912;51.034;6.984;2024-02-21T09:55:40;56506.56;;;-142.13;46.95
11712;BME280;5912;51.034;6.984;2024-02-21T09:58:07;56494.56;;;-142.13;46.42
11712;BME280;5912;51.034;6.984;2024-02-21T10:00:35;56490.53;;;-142.13;46.38
11712;BME280;5912;51.034;6.984;2024-02-21T10:03:01;56490.53;;;-142.13;45.38
11712;BME280;5912;51.034;6.984;2024-02-21T10:05:26;56516.59;;;-142.13;45.87
11712;BME280;5912;51.034;6.984;2024-02-21T10:07:52;56466.50;;;-142.13;46.92
11712;BME280;5912;51.034;6.984;2024-02-21T10:10:20;56522.59;;;-142.13;45.33
11712;BME280;5912;51.034;6.984;2024-02-21T10:12:53;56504.56;;;-142.13;44.50
11712;BME280;5912;51.034;6.984;2024-02-21T10:15:24;56468.50;;;-142.13;44.74
11712;BME280;5912;51.034;6.984;2024-02-21T10:17:58;56506.56;;;-142.13;43.85
11712;BME280;5912;51.034;6.984;2024-02-21T10:20:24;56484.53;;;-142.13;44.02
11712;BME280;5912;51.034;6.984;2024-02-21T10:23:03;56520.59;;;-142.13;44.52
11712;BME280;5912;51.034;6.984;2024-02-21T10:25:38;56494.56;;;-142.13;44.32
11712;BME280;5912;51.034;6.984;2024-02-21T10:28:07;56456.50;;;-142.13;44.46
11712;BME280;5912;51.034;6.984;2024-02-21T10:30:32;56480.53;;;-142.13;43.68
11712;BME280;5912;51.034;6.984;2024-02-21T10:32:58;56464.50;;;-142.13;43.81
11712;BME280;5912;51.034;6.984;2024-02-21T10:35:31;56442.47;;;-142.13;43.73
11712;BME280;5912;51.034;6.984;2024-02-21T10:37:57;56480.53;;;-142.13;43.11
11712;BME280;5912;51.034;6.984;2024-02-21T10:40:27;56506.56;;;-142.13;43.37
11712;BME280;5912;51.034;6.984;2024-02-21T10:42:59;56482.53;;;-142.13;43.10
11712;BME280;5912;51.034;6.984;2024-02-21T10:45:29;56446.47;;;-142.13;43.20
11712;BME280;5912;51.034;6.984;2024-02-21T10:47:56;56444.47;;;-142.13;41.64
11712;BME280;5912;51.034;6.984;2024-02-21T10:50:25;56460.50;;;-142.13;41.71
11712;BME280;5912;51.034;6.984;2024-02-21T10:53:06;56470.50;;;-142.13;41.68
11712;BME280;5912;51.034;6.984;2024-02-21T10:55:41;56468.50;;;-142.13;41.55
11712;BME280;5912;51.034;6.984;2024-02-21T10:58:12;56484.53;;;-142.13;41.20
11712;BME280;5912;51.034;6.984;2024-02-21T11:00:38;56488.53;;;-142.13;41.57
11712;BME280;5912;51.034;6.984;2024-02-21T11:03:05;56488.53;;;-142.13;41.67
11712;BME280;5912;51.034;6.984;2024-02-21T11:05:31;56468.50;;;-142.13;42.22
11712;BME280;5912;51.034;6.984;2024-02-21T11:07:58;56496.56;;;-142.13;42.75
11712;BME280;5912;51.034;6.984;2024-02-21T11:10:24;56488.53;;;-142.13;42.62
11712;BME280;5912;51.034;6.984;2024-02-21T11:13:08;56446.47;;;-142.13;42.30
11712;BME280;5912;51.034;6.984;2024-02-21T11:15:34;56458.50;;;-142.13;42.10
11712;BME280;5912;51.034;6.984;2024-02-21T11:18:00;56436.47;;;-142.13;40.64
11712;BME280;5912;51.034;6.984;2024-02-21T11:20:35;56442.47;;;-142.13;40.00
11712;BME280;5912;51.034;6.984;2024-02-21T11:23:01;56428.44;;;-142.13;39.89
11712;BME280;5912;51.034;6.984;2024-02-21T11:25:28;56432.44;;;-142.13;39.68
11712;BME280;5912;51.034;6.984;2024-02-21T11:28:02;56440.47;;;-142.13;39.68
11712;BME280;5912;51.034;6.984;2024-02-21T11:30:31;56438.47;;;-142.13;39.78
11712;BME280;5912;51.034;6.984;2024-02-21T11:33:05;56440.47;;;-142.13;39.99
11712;BME280;5912;51.034;6.984;2024-02-21T11:35:32;56400.41;;;-142.13;39.75
11712;BME280;5912;51.034;6.984;2024-02-21T11:38:09;56422.44;;;-142.13;40.26
11712;BME280;5912;51.034;6.984;2024-02-21T11:40:38;56422.44;;;-142.13;40.24
11712;BME280;5912;51.034;6.984;2024-02-21T11:43:05;56420.44;;;-142.13;40.15
11712;BME280;5912;51.034;6.984;2024-02-21T11:45:31;56436.47;;;-142.13;39.97
11712;BME280;5912;51.034;6.984;2024-02-21T11:47:58;56450.47;;;-142.13;40.05
11712;BME280;5912;51.034;6.984;2024-02-21T11:50:26;56440.47;;;-142.13;40.43
11712;BME280;5912;51.034;6.984;2024-02-21T11:52:54;56400.41;;;-142.13;40.13
11712;BME280;5912;51.034;6.984;2024-02-21T11:55:20;56428.44;;;-142.13;39.82
11712;BME280;5912;51.034;6.984;2024-02-21T11:57:48;56436.47;;;-142.13;40.04
11712;BME280;5912;51.034;6.984;2024-02-21T12:00:18;56456.50;;;-142.13;39.89
11712;BME280;5912;51.034;6.984;2024-02-21T12:02:45;56436.47;;;-142.13;40.00
11712;BME280;5912;51.034;6.984;2024-02-21T12:05:11;56408.41;;;-142.13;39.80
11712;BME280;5912;51.034;6.984;2024-02-21T12:07:37;56416.44;;;-142.13;39.81
11712;BME280;5912;51.034;6.984;2024-02-21T12:10:11;56426.44;;;-142.13;39.75
11712;BME280;5912;51.034;6.984;2024-02-21T12:12:38;56432.44;;;-142.13;39.46
11712;BME280;5912;51.034;6.984;2024-02-21T12:15:05;56392.38;;;-142.13;39.66
11712;BME280;5912;51.034;6.984;2024-02-21T12:17:35;56442.47;;;-142.13;39.93
11712;BME280;5912;51.034;6.984;2024-02-21T12:20:05;56412.41;;;-142.13;39.70
11712;BME280;5912;51.034;6.984;2024-02-21T12:25:55;56484.53;;;-142.13;40.61
11712;BME280;5912;51.034;6.984;2024-02-21T12:28:21;56452.47;;;-142.13;40.81
11712;BME280;5912;51.034;6.984;2024-02-21T12:30:47;56448.47;;;-142.13;41.21
11712;BME280;5912;51.034;6.984;2024-02-21T12:33:12;56452.47;;;-142.13;41.15
11712;BME280;5912;51.034;6.984;2024-02-21T12:35:39;56488.53;;;-142.13;40.59
11712;BME280;5912;51.034;6.984;2024-02-21T12:38:05;56446.47;;;-142.13;40.66
11712;BME280;5912;51.034;6.984;2024-02-21T12:40:31;56422.44;;;-142.13;40.47
11712;BME280;5912;51.034;6.984;2024-02-21T12:42:59;56448.47;;;-142.13;40.71
11712;BME280;5912;51.034;6.984;2024-02-21T12:45:25;56456.50;;;-142.13;40.58
11712;BME280;5912;51.034;6.984;2024-02-21T12:47:51;56436.47;;;-142.13;40.43
11712;BME280;5912;51.034;6.984;2024-02-21T12:50:17;56436.47;;;-142.13;40.96
11712;BME280;5912;51.034;6.984;2024-02-21T12:52:42;56454.47;;;-142.13;40.62
11712;BME280;5912;51.034;6.984;2024-02-21T12:55:08;56454.47;;;-142.13;40.76